Time;durP1;ratioP1;P1;durP2;ratioP2;P2;SDS_P1;SDS_P2;PMS_P1;PMS_P2;Temp;Humidity;BMP_temperature;BMP_pressure;BME280_temperature;BME280_humidity;BME280_pressure;Samples;Min_cycle;Max_cycle;Signal;HPM_P1;HPM_P2
2021/12/26 00:01:16;;;;;;;;;;;8.30;99.90;;;;;;5134431;27;19966;-73
2021/12/26 00:03:42;;;;;;;;;;;8.30;99.90;;;;;;5135894;27;19907;-73
2021/12/26 00:06:11;;;;;;;;;;;8.30;99.90;;;;;;5134927;27;19998;-73
2021/12/26 00:08:37;;;;;;;;;;;8.30;99.90;;;;;;5135569;27;19918;-73
2021/12/26 00:11:04;;;;;;;;;;;8.30;99.90;;;;;;5135183;27;20285;-73
2021/12/26 00:13:30;;;;;;;;;;;8.40;99.90;;;;;;5134811;27;20275;-73
2021/12/26 00:15:56;;;;;;;;;;;8.40;99.90;;;;;;5134780;27;20013;-73
2021/12/26 00:18:22;;;;;;;;;;;8.50;99.90;;;;;;5135238;27;19908;-73
2021/12/26 00:20:48;;;;;;;;;;;8.50;99.90;;;;;;5135436;27;20245;-72
2021/12/26 00:23:14;;;;;;;;;;;8.50;99.90;;;;;;5134349;27;20458;-72
2021/12/26 00:25:40;;;;;;;;;;;8.50;99.90;;;;;;5135335;27;20360;-72
2021/12/26 00:28:06;;;;;;;;;;;8.50;99.90;;;;;;5134402;27;19928;-73
2021/12/26 00:30:32;;;;;;;;;;;8.50;99.90;;;;;;5135614;27;19919;-72
2021/12/26 00:32:57;;;;;;;;;;;8.60;99.90;;;;;;5134027;27;19907;-74
2021/12/26 00:35:23;;;;;;;;;;;8.60;99.90;;;;;;5134951;27;20424;-73
2021/12/26 00:37:49;;;;;;;;;;;8.70;99.90;;;;;;5135154;27;19945;-72
2021/12/26 00:40:18;;;;;;;;;;;8.70;99.90;;;;;;5133594;27;19918;-73
2021/12/26 00:42:44;;;;;;;;;;;8.70;99.90;;;;;;5134815;27;19946;-73
2021/12/26 00:45:09;;;;;;;;;;;8.80;99.90;;;;;;5134078;27;19908;-72
2021/12/26 00:47:35;;;;;;;;;;;8.70;99.90;;;;;;5134366;27;19911;-73
2021/12/26 00:50:02;;;;;;;;;;;8.70;99.90;;;;;;5133505;27;19951;-73
2021/12/26 00:52:27;;;;;;;;;;;8.70;99.90;;;;;;5134245;27;19946;-73
2021/12/26 00:54:53;;;;;;;;;;;8.70;99.90;;;;;;5133971;27;19946;-73
2021/12/26 00:57:19;;;;;;;;;;;8.80;99.90;;;;;;5133639;27;20352;-72
2021/12/26 00:59:44;;;;;;;;;;;8.80;99.90;;;;;;5133880;27;19995;-72
2021/12/26 01:02:10;;;;;;;;;;;8.80;99.90;;;;;;5132735;27;19907;-73
2021/12/26 01:04:37;;;;;;;;;;;8.90;99.90;;;;;;5134125;27;19954;-73
2021/12/26 01:07:08;;;;;;;;;;;8.90;99.90;;;;;;5133231;27;19907;-73
2021/12/26 01:09:35;;;;;;;;;;;8.90;99.90;;;;;;5133589;27;19919;-74
2021/12/26 01:12:10;;;;;;;;;;;8.90;99.90;;;;;;5132933;27;19911;-74
2021/12/26 01:14:37;;;;;;;;;;;8.90;99.90;;;;;;5133869;27;20006;-73
2021/12/26 01:17:12;;;;;;;;;;;8.90;99.90;;;;;;5133033;27;20287;-73
2021/12/26 01:19:48;;;;;;;;;;;8.90;99.90;;;;;;5133852;27;19914;-73
2021/12/26 01:22:15;;;;;;;;;;;8.90;99.90;;;;;;5132915;27;19908;-73
2021/12/26 01:24:41;;;;;;;;;;;8.90;99.90;;;;;;5133413;27;20368;-73
2021/12/26 01:27:07;;;;;;;;;;;8.80;99.90;;;;;;5132628;27;19933;-73
2021/12/26 01:29:34;;;;;;;;;;;8.80;99.90;;;;;;5133365;27;19915;-73
2021/12/26 01:32:00;;;;;;;;;;;8.80;99.90;;;;;;5132551;27;19912;-74
2021/12/26 01:34:25;;;;;;;;;;;8.70;99.90;;;;;;5133750;27;19934;-73
2021/12/26 01:36:51;;;;;;;;;;;8.70;99.90;;;;;;5133447;27;19917;-73
2021/12/26 01:39:17;;;;;;;;;;;8.70;99.90;;;;;;5132307;27;19903;-74
2021/12/26 01:41:44;;;;;;;;;;;8.70;99.90;;;;;;5133492;27;19911;-73
2021/12/26 01:44:12;;;;;;;;;;;8.60;99.90;;;;;;5132435;27;19914;-73
2021/12/26 01:46:38;;;;;;;;;;;8.60;99.90;;;;;;5132948;27;19950;-73
2021/12/26 01:49:06;;;;;;;;;;;8.60;99.90;;;;;;5113742;27;19920;-73
2021/12/26 01:51:32;;;;;;;;;;;8.60;99.90;;;;;;5133619;27;19908;-73
2021/12/26 01:54:03;;;;;;;;;;;8.60;99.90;;;;;;5133083;27;19914;-74
2021/12/26 01:56:29;;;;;;;;;;;8.60;99.90;;;;;;5133395;27;20360;-73
2021/12/26 01:58:56;;;;;;;;;;;8.50;99.90;;;;;;5133428;27;19912;-72
2021/12/26 02:01:22;;;;;;;;;;;8.50;99.90;;;;;;5132949;27;19948;-73
2021/12/26 02:03:48;;;;;;;;;;;8.50;99.90;;;;;;5133186;27;19957;-72
2021/12/26 02:06:13;;;;;;;;;;;8.50;99.90;;;;;;5132654;27;19907;-73
2021/12/26 02:08:39;;;;;;;;;;;8.50;99.90;;;;;;5133380;27;19918;-72
2021/12/26 02:11:05;;;;;;;;;;;8.50;99.90;;;;;;5132470;27;19915;-73
2021/12/26 02:13:31;;;;;;;;;;;8.50;99.90;;;;;;5133382;28;20404;-73
2021/12/26 02:15:57;;;;;;;;;;;8.40;99.90;;;;;;5133440;28;19908;-73
2021/12/26 02:18:23;;;;;;;;;;;8.40;99.90;;;;;;5132749;28;19985;-72
2021/12/26 02:23:22;;;;;;;;;;;8.30;99.90;;;;;;5132563;28;19919;-73
2021/12/26 02:28:23;;;;;;;;;;;8.30;99.90;;;;;;5132630;28;19942;-73
2021/12/26 02:30:49;;;;;;;;;;;8.30;99.90;;;;;;5132901;28;20343;-73
2021/12/26 02:33:16;;;;;;;;;;;8.30;99.90;;;;;;5132577;28;20015;-73
2021/12/26 02:35:42;;;;;;;;;;;8.30;99.90;;;;;;5133188;28;19908;-73
2021/12/26 02:38:09;;;;;;;;;;;8.30;99.90;;;;;;5132547;28;19911;-73
2021/12/26 02:40:35;;;;;;;;;;;8.40;99.90;;;;;;5133281;28;19919;-72
2021/12/26 02:43:01;;;;;;;;;;;8.30;99.90;;;;;;5132762;28;19908;-75
2021/12/26 02:45:26;;;;;;;;;;;8.40;99.90;;;;;;5132725;28;19909;-72
2021/12/26 02:47:52;;;;;;;;;;;8.40;99.90;;;;;;5132895;28;20383;-73
2021/12/26 02:50:18;;;;;;;;;;;8.40;99.90;;;;;;5131590;27;20383;-72
2021/12/26 02:52:44;;;;;;;;;;;8.40;99.90;;;;;;5132684;28;19909;-73
2021/12/26 02:55:10;;;;;;;;;;;8.40;99.90;;;;;;5132357;28;20444;-73
2021/12/26 02:57:36;;;;;;;;;;;8.50;99.90;;;;;;5133398;28;19908;-73
2021/12/26 03:00:10;;;;;;;;;;;8.40;99.90;;;;;;5132656;28;19911;-74
2021/12/26 03:02:39;;;;;;;;;;;8.50;99.90;;;;;;5132965;28;19907;-71
2021/12/26 03:05:05;;;;;;;;;;;8.50;99.90;;;;;;5132273;28;19970;-73
2021/12/26 03:07:30;;;;;;;;;;;8.50;99.90;;;;;;5133062;28;19946;-72
2021/12/26 03:09:59;;;;;;;;;;;8.40;99.90;;;;;;5132991;28;19918;-72
2021/12/26 03:12:26;;;;;;;;;;;8.50;99.90;;;;;;5131870;28;20469;-72
2021/12/26 03:14:52;;;;;;;;;;;8.50;99.90;;;;;;5114552;28;20007;-72
2021/12/26 03:17:17;;;;;;;;;;;8.50;99.90;;;;;;5113645;28;19919;-72
2021/12/26 03:19:43;;;;;;;;;;;8.50;99.90;;;;;;5132830;28;19957;-72
2021/12/26 03:22:08;;;;;;;;;;;8.50;99.90;;;;;;5132053;28;19952;-72
2021/12/26 03:24:35;;;;;;;;;;;8.50;99.90;;;;;;5134690;27;19992;-72
2021/12/26 03:27:02;;;;;;;;;;;8.40;99.90;;;;;;5136258;27;19907;-72
2021/12/26 03:29:27;;;;;;;;;;;8.40;99.90;;;;;;5135487;27;20010;-72
2021/12/26 03:31:53;;;;;;;;;;;8.40;99.90;;;;;;5136170;27;20004;-72
2021/12/26 03:34:18;;;;;;;;;;;8.40;99.90;;;;;;5117219;27;20378;-71
2021/12/26 03:36:46;;;;;;;;;;;8.40;99.90;;;;;;5135891;27;19990;-72
2021/12/26 03:39:12;;;;;;;;;;;8.50;99.90;;;;;;5135578;27;19908;-72
2021/12/26 03:41:37;;;;;;;;;;;8.50;99.90;;;;;;5136206;27;20019;-72
2021/12/26 03:44:03;;;;;;;;;;;8.50;99.90;;;;;;5136356;27;19951;-71
2021/12/26 03:46:29;;;;;;;;;;;8.50;99.90;;;;;;5135648;27;19907;-72
2021/12/26 03:48:54;;;;;;;;;;;8.50;99.90;;;;;;5135924;27;20014;-72
2021/12/26 03:51:20;;;;;;;;;;;8.50;99.90;;;;;;5116851;27;19907;-72
2021/12/26 03:53:46;;;;;;;;;;;8.50;99.90;;;;;;5135875;27;19914;-72
2021/12/26 03:56:12;;;;;;;;;;;8.50;99.90;;;;;;5135423;27;19912;-72
2021/12/26 03:58:39;;;;;;;;;;;8.50;99.90;;;;;;5135893;27;19907;-72
2021/12/26 04:01:04;;;;;;;;;;;8.50;99.90;;;;;;5135705;27;20321;-72
2021/12/26 04:03:30;;;;;;;;;;;8.40;99.90;;;;;;5135126;27;19942;-72
2021/12/26 04:05:56;;;;;;;;;;;8.40;99.90;;;;;;5135603;27;20002;-72
2021/12/26 04:08:21;;;;;;;;;;;8.30;99.90;;;;;;5134879;27;19915;-72
2021/12/26 04:10:47;;;;;;;;;;;8.30;99.90;;;;;;5135662;27;19918;-72
2021/12/26 04:13:12;;;;;;;;;;;8.20;99.90;;;;;;5134510;27;19927;-72
2021/12/26 04:15:39;;;;;;;;;;;8.20;99.90;;;;;;5135436;27;20309;-72
2021/12/26 04:18:05;;;;;;;;;;;8.10;99.90;;;;;;5135374;27;19934;-72
2021/12/26 04:20:30;;;;;;;;;;;8.10;99.90;;;;;;5134590;27;20379;-72
2021/12/26 04:22:57;;;;;;;;;;;8.10;99.90;;;;;;5116908;27;20328;-72
2021/12/26 04:25:22;;;;;;;;;;;8.10;99.90;;;;;;5134580;27;19914;-72
2021/12/26 04:27:49;;;;;;;;;;;8.20;99.90;;;;;;5135479;27;20272;-72
2021/12/26 04:30:33;;;;;;;;;;;8.10;99.90;;;;;;5134107;27;20427;-72
2021/12/26 04:32:59;;;;;;;;;;;8.10;99.90;;;;;;5135043;27;19918;-72
2021/12/26 04:35:24;;;;;;;;;;;8.10;99.90;;;;;;5133754;27;20333;-72
2021/12/26 04:37:50;;;;;;;;;;;8.10;99.90;;;;;;5134949;27;19907;-72
2021/12/26 04:40:16;;;;;;;;;;;8.00;99.90;;;;;;5134271;27;19908;-72
2021/12/26 04:42:44;;;;;;;;;;;8.00;99.90;;;;;;5134965;27;19957;-72
2021/12/26 04:45:10;;;;;;;;;;;7.90;99.90;;;;;;5134810;27;19914;-74
2021/12/26 04:47:37;;;;;;;;;;;7.90;99.90;;;;;;5134190;27;19907;-72
2021/12/26 04:50:04;;;;;;;;;;;7.90;99.90;;;;;;5134406;27;19919;-72
2021/12/26 04:52:30;;;;;;;;;;;7.80;99.90;;;;;;5134141;27;20083;-72
2021/12/26 04:54:55;;;;;;;;;;;7.80;99.90;;;;;;5134715;27;20364;-72
2021/12/26 04:57:21;;;;;;;;;;;7.80;99.90;;;;;;5134010;27;19915;-72
2021/12/26 04:59:46;;;;;;;;;;;7.70;99.90;;;;;;5134663;27;19907;-72
2021/12/26 05:02:12;;;;;;;;;;;7.70;99.90;;;;;;5134134;27;20006;-74
2021/12/26 05:04:38;;;;;;;;;;;7.70;99.90;;;;;;5134360;27;20383;-72
2021/12/26 05:07:03;;;;;;;;;;;7.70;99.90;;;;;;5134574;27;19908;-72
2021/12/26 05:09:29;;;;;;;;;;;7.60;99.90;;;;;;5133663;27;19916;-72
2021/12/26 05:11:57;;;;;;;;;;;7.50;99.90;;;;;;5134372;27;20341;-72
2021/12/26 05:14:24;;;;;;;;;;;7.50;99.90;;;;;;5133591;27;19911;-72
2021/12/26 05:16:49;;;;;;;;;;;7.40;99.90;;;;;;5133997;27;19918;-72
2021/12/26 05:19:15;;;;;;;;;;;7.40;99.90;;;;;;5133099;27;19912;-72
2021/12/26 05:21:41;;;;;;;;;;;7.40;99.90;;;;;;5134302;27;19914;-72
2021/12/26 05:24:06;;;;;;;;;;;7.30;99.90;;;;;;5134145;27;19907;-72
2021/12/26 05:26:32;;;;;;;;;;;7.30;99.90;;;;;;5133468;27;20520;-72
2021/12/26 05:28:57;;;;;;;;;;;7.30;99.90;;;;;;5134138;27;19923;-72
2021/12/26 05:31:23;;;;;;;;;;;7.30;99.90;;;;;;5133244;27;19907;-72
2021/12/26 05:33:48;;;;;;;;;;;7.30;99.90;;;;;;5115730;27;19911;-73
2021/12/26 05:36:14;;;;;;;;;;;7.30;99.90;;;;;;5133584;27;20352;-73
2021/12/26 05:38:40;;;;;;;;;;;7.20;99.90;;;;;;5133584;27;19930;-71
2021/12/26 05:41:06;;;;;;;;;;;7.30;99.90;;;;;;5133980;27;19918;-71
2021/12/26 05:43:31;;;;;;;;;;;7.30;99.90;;;;;;5133129;27;19908;-71
2021/12/26 05:45:57;;;;;;;;;;;7.30;99.90;;;;;;5133126;27;20279;-71
2021/12/26 05:48:22;;;;;;;;;;;7.30;99.90;;;;;;5132307;27;19907;-72
2021/12/26 05:50:48;;;;;;;;;;;7.30;99.90;;;;;;5133961;27;19908;-71
2021/12/26 05:53:14;;;;;;;;;;;7.30;99.90;;;;;;5133371;27;19907;-73
2021/12/26 05:55:39;;;;;;;;;;;7.30;99.90;;;;;;5133216;27;19942;-72
2021/12/26 05:58:05;;;;;;;;;;;7.30;99.90;;;;;;5133523;27;20381;-72
2021/12/26 06:00:30;;;;;;;;;;;7.30;99.90;;;;;;5114320;27;19953;-72
2021/12/26 06:02:56;;;;;;;;;;;7.20;99.90;;;;;;5133539;27;19914;-72
2021/12/26 06:05:21;;;;;;;;;;;7.20;99.90;;;;;;5132822;27;19908;-72
2021/12/26 06:07:48;;;;;;;;;;;7.10;99.90;;;;;;5133410;27;20277;-72
2021/12/26 06:10:14;;;;;;;;;;;7.10;99.90;;;;;;5133485;27;19918;-73
2021/12/26 06:12:40;;;;;;;;;;;7.00;99.90;;;;;;5132836;28;19911;-72
2021/12/26 06:15:05;;;;;;;;;;;7.00;99.90;;;;;;5133021;28;19908;-72
2021/12/26 06:17:31;;;;;;;;;;;6.90;99.90;;;;;;5132546;28;19954;-72
2021/12/26 06:19:57;;;;;;;;;;;6.90;99.90;;;;;;5133644;28;19908;-72
2021/12/26 06:22:22;;;;;;;;;;;6.90;99.90;;;;;;5132673;28;19914;-73
2021/12/26 06:24:48;;;;;;;;;;;6.90;99.90;;;;;;5133685;28;20280;-73
2021/12/26 06:27:13;;;;;;;;;;;6.80;99.90;;;;;;5133232;28;19959;-73
2021/12/26 06:29:39;;;;;;;;;;;6.80;99.90;;;;;;5132185;28;20685;-72
2021/12/26 06:32:05;;;;;;;;;;;6.80;99.90;;;;;;5133388;28;19916;-72
2021/12/26 06:34:30;;;;;;;;;;;6.70;99.90;;;;;;5114196;28;19911;-73
2021/12/26 06:36:56;;;;;;;;;;;6.80;99.90;;;;;;5133361;28;20352;-73
2021/12/26 06:39:22;;;;;;;;;;;6.80;99.90;;;;;;5132664;28;19976;-72
2021/12/26 06:41:47;;;;;;;;;;;6.80;99.90;;;;;;5133219;28;19907;-73
2021/12/26 06:44:13;;;;;;;;;;;6.80;99.90;;;;;;5133094;28;19947;-72
2021/12/26 06:46:39;;;;;;;;;;;6.80;99.90;;;;;;5132389;28;19903;-73
2021/12/26 06:49:05;;;;;;;;;;;6.80;99.90;;;;;;5132614;28;20355;-72
2021/12/26 06:51:30;;;;;;;;;;;6.80;99.90;;;;;;5132392;28;19907;-73
2021/12/26 06:53:56;;;;;;;;;;;6.80;99.90;;;;;;5133231;28;19907;-72
2021/12/26 06:56:22;;;;;;;;;;;6.80;99.90;;;;;;5132336;28;19908;-74
2021/12/26 06:58:47;;;;;;;;;;;6.90;99.90;;;;;;5135245;27;20489;-73
2021/12/26 07:01:13;;;;;;;;;;;6.90;99.90;;;;;;5136729;27;19960;-72
2021/12/26 07:03:38;;;;;;;;;;;6.90;99.90;;;;;;5135862;27;19964;-73
2021/12/26 07:06:04;;;;;;;;;;;7.00;99.90;;;;;;5137348;27;19915;-73
2021/12/26 07:08:29;;;;;;;;;;;7.10;99.90;;;;;;5135942;27;19907;-73
2021/12/26 07:10:55;;;;;;;;;;;7.10;99.90;;;;;;5136900;27;20423;-72
2021/12/26 07:13:21;;;;;;;;;;;7.20;99.90;;;;;;5136254;27;19908;-75
2021/12/26 07:15:46;;;;;;;;;;;7.20;99.90;;;;;;5136814;27;19914;-73
2021/12/26 07:18:12;;;;;;;;;;;7.20;99.90;;;;;;5136670;27;19907;-73
2021/12/26 07:20:38;;;;;;;;;;;7.20;99.90;;;;;;5135391;27;19908;-73
2021/12/26 07:23:04;;;;;;;;;;;7.20;99.90;;;;;;5136680;27;20002;-73
2021/12/26 07:25:29;;;;;;;;;;;7.30;99.90;;;;;;5135615;27;19954;-73
2021/12/26 07:27:55;;;;;;;;;;;7.30;99.90;;;;;;5136572;27;20428;-72
2021/12/26 07:30:21;;;;;;;;;;;7.30;99.90;;;;;;5136241;27;20375;-73
2021/12/26 07:32:46;;;;;;;;;;;7.30;99.90;;;;;;5135854;27;19907;-71
2021/12/26 07:35:12;;;;;;;;;;;7.30;99.90;;;;;;5136464;27;20268;-71
2021/12/26 07:37:39;;;;;;;;;;;7.30;99.90;;;;;;5135532;27;19994;-71
2021/12/26 07:40:05;;;;;;;;;;;7.30;99.90;;;;;;5136257;27;20364;-71
2021/12/26 07:42:31;;;;;;;;;;;7.30;99.90;;;;;;5135164;27;20281;-71
2021/12/26 07:44:57;;;;;;;;;;;7.40;99.90;;;;;;5136158;27;19907;-71
2021/12/26 07:47:22;;;;;;;;;;;7.30;99.90;;;;;;5135614;27;19911;-74
2021/12/26 07:49:48;;;;;;;;;;;7.30;99.90;;;;;;5135364;27;19919;-72
2021/12/26 07:52:18;;;;;;;;;;;7.30;99.90;;;;;;5135911;27;19907;-71
2021/12/26 07:54:44;;;;;;;;;;;7.30;99.90;;;;;;5134823;27;19945;-71
2021/12/26 07:57:10;;;;;;;;;;;7.20;99.90;;;;;;5135867;27;19953;-71
2021/12/26 07:59:36;;;;;;;;;;;7.20;99.90;;;;;;5134757;27;19907;-71
2021/12/26 08:02:02;;;;;;;;;;;7.20;99.90;;;;;;5135922;27;19908;-71
2021/12/26 08:04:28;;;;;;;;;;;7.20;99.90;;;;;;5134937;27;19912;-72
2021/12/26 08:06:53;;;;;;;;;;;7.30;99.90;;;;;;5135789;27;19914;-71
2021/12/26 08:09:19;;;;;;;;;;;7.30;99.90;;;;;;5134702;27;19920;-71
2021/12/26 08:11:45;;;;;;;;;;;7.40;99.90;;;;;;5134335;27;20509;-71
2021/12/26 08:14:11;;;;;;;;;;;7.40;99.90;;;;;;5135320;27;19908;-71
2021/12/26 08:16:36;;;;;;;;;;;7.30;99.90;;;;;;5134595;27;19908;-71
2021/12/26 08:19:03;;;;;;;;;;;7.20;99.90;;;;;;5135515;27;19914;-71
2021/12/26 08:21:29;;;;;;;;;;;7.20;99.90;;;;;;5134174;27;19998;-72
2021/12/26 08:23:54;;;;;;;;;;;7.20;99.90;;;;;;5135018;27;20002;-71
2021/12/26 08:26:20;;;;;;;;;;;7.30;99.90;;;;;;5135323;27;19996;-71
2021/12/26 08:28:45;;;;;;;;;;;7.30;99.90;;;;;;5134398;27;19919;-71
2021/12/26 08:31:11;;;;;;;;;;;7.30;99.90;;;;;;5135203;27;19907;-71
2021/12/26 08:33:37;;;;;;;;;;;7.30;99.90;;;;;;5134428;27;19908;-71
2021/12/26 08:36:04;;;;;;;;;;;7.30;99.90;;;;;;5116583;27;20002;-71
2021/12/26 08:38:29;;;;;;;;;;;7.30;99.90;;;;;;5134283;27;19913;-72
2021/12/26 08:40:56;;;;;;;;;;;7.40;99.90;;;;;;5116425;27;19920;-72
2021/12/26 08:43:22;;;;;;;;;;;7.40;99.90;;;;;;5134781;27;20002;-72
2021/12/26 08:45:48;;;;;;;;;;;7.40;99.90;;;;;;5134122;27;19943;-71
2021/12/26 08:48:14;;;;;;;;;;;7.40;99.90;;;;;;5134225;27;20392;-72
2021/12/26 08:50:40;;;;;;;;;;;7.40;99.90;;;;;;5133782;27;20390;-72
2021/12/26 08:53:06;;;;;;;;;;;7.40;99.90;;;;;;5134566;27;19959;-72
2021/12/26 08:55:32;;;;;;;;;;;7.40;99.90;;;;;;5133962;27;19950;-72
2021/12/26 08:57:59;;;;;;;;;;;7.50;99.90;;;;;;5135077;27;20391;-72
2021/12/26 09:00:24;;;;;;;;;;;7.50;99.90;;;;;;5134446;27;20002;-71
2021/12/26 09:02:50;;;;;;;;;;;7.40;99.90;;;;;;5133402;27;19947;-72
2021/12/26 09:05:16;;;;;;;;;;;7.50;99.90;;;;;;5134317;27;20370;-72
2021/12/26 09:07:42;;;;;;;;;;;7.50;99.90;;;;;;5133717;27;19997;-73
2021/12/26 09:10:08;;;;;;;;;;;7.50;99.90;;;;;;5134194;27;19954;-73
2021/12/26 09:12:34;;;;;;;;;;;7.50;99.90;;;;;;5133656;27;19915;-73
2021/12/26 09:15:00;;;;;;;;;;;7.50;99.90;;;;;;5134223;27;20329;-73
2021/12/26 09:17:26;;;;;;;;;;;7.50;99.90;;;;;;5134341;27;19958;-77
2021/12/26 09:19:51;;;;;;;;;;;7.60;99.90;;;;;;5133337;27;20263;-83
2021/12/26 09:22:17;;;;;;;;;;;7.50;99.90;;;;;;5134122;27;20028;-82
2021/12/26 09:24:44;;;;;;;;;;;7.60;99.90;;;;;;5133611;27;19908;-77
2021/12/26 09:27:09;;;;;;;;;;;7.60;99.90;;;;;;5115810;27;19919;-75
2021/12/26 09:29:35;;;;;;;;;;;7.70;99.90;;;;;;5133311;27;19926;-72
2021/12/26 09:32:02;;;;;;;;;;;7.70;99.90;;;;;;5134105;27;19915;-72
2021/12/26 09:34:29;;;;;;;;;;;7.80;99.90;;;;;;5134198;27;19908;-72
2021/12/26 09:36:55;;;;;;;;;;;7.80;99.90;;;;;;5133459;27;19953;-72
2021/12/26 09:39:22;;;;;;;;;;;7.90;99.90;;;;;;5134079;27;19907;-72
2021/12/26 09:41:49;;;;;;;;;;;7.90;99.90;;;;;;5132967;27;19994;-71
2021/12/26 09:44:14;;;;;;;;;;;8.00;99.90;;;;;;5133811;27;19911;-72
2021/12/26 09:46:40;;;;;;;;;;;8.00;99.90;;;;;;5133045;27;19919;-72
2021/12/26 09:49:06;;;;;;;;;;;8.00;99.90;;;;;;5133215;27;19923;-71
2021/12/26 09:51:34;;;;;;;;;;;8.00;99.90;;;;;;5113992;27;20287;-74
2021/12/26 09:54:00;;;;;;;;;;;8.00;99.90;;;;;;5133323;27;19912;-72
2021/12/26 09:56:25;;;;;;;;;;;8.00;99.90;;;;;;5133765;27;20006;-72
2021/12/26 09:58:52;;;;;;;;;;;8.00;99.90;;;;;;5132958;27;20031;-73
2021/12/26 10:01:30;;;;;;;;;;;8.00;99.90;;;;;;5133658;27;19907;-71
2021/12/26 10:03:56;;;;;;;;;;;8.00;99.90;;;;;;5132629;27;19958;-71
2021/12/26 10:06:22;;;;;;;;;;;8.10;99.90;;;;;;5133476;27;20375;-72
2021/12/26 10:08:52;;;;;;;;;;;8.10;99.90;;;;;;5132597;27;19911;-72
2021/12/26 10:11:18;;;;;;;;;;;8.00;99.90;;;;;;5133301;27;19911;-72
2021/12/26 10:13:55;;;;;;;;;;;8.00;99.90;;;;;;5132745;28;19908;-73
2021/12/26 10:16:22;;;;;;;;;;;8.10;99.90;;;;;;5133697;28;19922;-72
2021/12/26 10:18:48;;;;;;;;;;;8.00;99.90;;;;;;5114300;28;20385;-73
2021/12/26 10:21:23;;;;;;;;;;;8.00;99.90;;;;;;5133297;28;19907;-73
2021/12/26 10:23:49;;;;;;;;;;;8.00;99.90;;;;;;5132571;28;19951;-73
2021/12/26 10:26:20;;;;;;;;;;;8.00;99.90;;;;;;5133332;28;19914;-72
2021/12/26 10:29:04;;;;;;;;;;;8.00;99.90;;;;;;5132523;28;19959;-72
2021/12/26 10:31:30;;;;;;;;;;;7.90;99.90;;;;;;5133012;28;20357;-71
2021/12/26 10:33:55;;;;;;;;;;;7.90;99.90;;;;;;5134997;27;19907;-72
2021/12/26 10:36:21;;;;;;;;;;;7.90;99.90;;;;;;5137437;27;20345;-72
2021/12/26 10:39:05;;;;;;;;;;;7.90;99.90;;;;;;5136596;27;20241;-73
2021/12/26 10:41:30;;;;;;;;;;;7.80;99.90;;;;;;5136912;27;20038;-73
2021/12/26 10:43:56;;;;;;;;;;;7.80;99.90;;;;;;5136595;27;20552;-72
2021/12/26 10:46:22;;;;;;;;;;;7.80;99.90;;;;;;5137392;27;19914;-72
2021/12/26 10:48:47;;;;;;;;;;;7.80;99.90;;;;;;5136022;27;19942;-72
2021/12/26 10:51:33;;;;;;;;;;;7.90;99.90;;;;;;5137191;27;19912;-72
2021/12/26 10:54:12;;;;;;;;;;;7.80;99.90;;;;;;5135554;27;20038;-73
2021/12/26 10:56:37;;;;;;;;;;;7.90;99.90;;;;;;5136341;27;19907;-74
2021/12/26 10:59:19;;;;;;;;;;;7.90;99.90;;;;;;5136485;27;20245;-73
2021/12/26 11:01:45;;;;;;;;;;;7.90;99.90;;;;;;5135775;27;19908;-73
2021/12/26 11:04:12;;;;;;;;;;;7.90;99.90;;;;;;5136695;27;19907;-73
2021/12/26 11:06:57;;;;;;;;;;;8.00;99.90;;;;;;5136277;27;19907;-74
2021/12/26 11:09:22;;;;;;;;;;;8.00;99.90;;;;;;5136102;27;19923;-73
2021/12/26 11:11:59;;;;;;;;;;;8.00;99.90;;;;;;5136187;27;19912;-73
2021/12/26 11:14:25;;;;;;;;;;;8.10;99.90;;;;;;5136286;27;19912;-72
2021/12/26 11:16:50;;;;;;;;;;;8.10;99.90;;;;;;5135506;27;19908;-73
2021/12/26 11:19:16;;;;;;;;;;;8.20;99.90;;;;;;5135833;27;19907;-72
2021/12/26 11:21:42;;;;;;;;;;;8.20;99.90;;;;;;5116974;27;19986;-73
2021/12/26 11:24:08;;;;;;;;;;;8.30;99.90;;;;;;5136160;27;20256;-72
2021/12/26 11:26:33;;;;;;;;;;;8.30;99.90;;;;;;5136005;27;19976;-72
2021/12/26 11:28:59;;;;;;;;;;;8.30;99.90;;;;;;5135579;27;19911;-72
2021/12/26 11:31:28;;;;;;;;;;;8.40;99.90;;;;;;5136210;27;20276;-72
2021/12/26 11:33:57;;;;;;;;;;;8.40;99.90;;;;;;5135674;27;19907;-72
2021/12/26 11:36:24;;;;;;;;;;;8.50;99.90;;;;;;5136431;27;19914;-72
2021/12/26 11:38:50;;;;;;;;;;;8.60;99.90;;;;;;5135548;27;19911;-72
2021/12/26 11:41:35;;;;;;;;;;;8.70;99.90;;;;;;5136466;27;20268;-73
2021/12/26 11:44:07;;;;;;;;;;;8.80;99.90;;;;;;5134731;27;19968;-71
2021/12/26 11:46:39;;;;;;;;;;;8.80;99.90;;;;;;5135801;27;19907;-72
2021/12/26 11:49:33;;;;;;;;;;;8.90;99.90;;;;;;5135145;27;20344;-72
2021/12/26 11:51:59;;;;;;;;;;;8.90;99.90;;;;;;5135299;27;20359;-72
2021/12/26 11:54:43;;;;;;;;;;;9.00;99.90;;;;;;5135755;27;19907;-71
2021/12/26 11:57:14;;;;;;;;;;;9.10;99.90;;;;;;5136375;27;19908;-72
2021/12/26 11:59:52;;;;;;;;;;;9.10;99.90;;;;;;5135500;27;19908;-73
2021/12/26 12:02:36;;;;;;;;;;;9.20;99.90;;;;;;5135500;27;19911;-72
2021/12/26 12:05:13;;;;;;;;;;;9.20;99.90;;;;;;5116554;27;19903;-72
2021/12/26 12:07:46;;;;;;;;;;;9.30;99.90;;;;;;5117104;27;19908;-73
2021/12/26 12:10:30;;;;;;;;;;;9.30;99.90;;;;;;5135740;27;20284;-72
2021/12/26 12:12:55;;;;;;;;;;;9.30;99.90;;;;;;5134807;27;19911;-72
2021/12/26 12:15:47;;;;;;;;;;;9.30;99.90;;;;;;5117102;27;19914;-72
2021/12/26 12:18:32;;;;;;;;;;;9.30;99.90;;;;;;5130223;27;19952;-72
2021/12/26 12:21:07;;;;;;;;;;;9.40;99.90;;;;;;5134821;27;19915;-73
2021/12/26 12:23:32;;;;;;;;;;;9.50;99.90;;;;;;5135210;27;19908;-71
2021/12/26 12:25:58;;;;;;;;;;;9.60;99.90;;;;;;5134259;27;19930;-72
2021/12/26 12:28:23;;;;;;;;;;;9.70;99.90;;;;;;5135703;27;19929;-72
2021/12/26 12:30:53;;;;;;;;;;;9.80;99.90;;;;;;5134061;27;19916;-72
2021/12/26 12:33:21;;;;;;;;;;;9.80;99.90;;;;;;5135186;27;19915;-73
2021/12/26 12:35:48;;;;;;;;;;;9.90;99.90;;;;;;5115947;27;20379;-73
2021/12/26 12:38:21;;;;;;;;;;;9.90;99.90;;;;;;5135009;27;20470;-72
2021/12/26 12:40:47;;;;;;;;;;;9.90;99.90;;;;;;5134083;27;19946;-73
2021/12/26 12:43:15;;;;;;;;;;;9.90;99.90;;;;;;5135239;27;20389;-72
2021/12/26 12:46:11;;;;;;;;;;;9.80;99.90;;;;;;5134732;27;19908;-72
2021/12/26 12:48:41;;;;;;;;;;;9.80;99.90;;;;;;5112982;27;20142;-73
2021/12/26 12:51:15;;;;;;;;;;;9.80;99.90;;;;;;5133495;27;19907;-73
2021/12/26 12:53:46;;;;;;;;;;;9.80;99.90;;;;;;5134540;27;19914;-73
2021/12/26 12:56:26;;;;;;;;;;;9.70;99.90;;;;;;5134115;27;19908;-73
2021/12/26 12:59:12;;;;;;;;;;;9.70;99.90;;;;;;5134255;27;20352;-73
2021/12/26 13:01:40;;;;;;;;;;;9.70;99.90;;;;;;5133725;27;19912;-73
2021/12/26 13:04:06;;;;;;;;;;;9.60;99.90;;;;;;5134609;27;19956;-73
2021/12/26 13:06:31;;;;;;;;;;;9.60;99.90;;;;;;5140173;27;20428;-73
2021/12/26 13:08:57;;;;;;;;;;;9.50;99.90;;;;;;5144397;27;20006;-73
2021/12/26 13:11:24;;;;;;;;;;;9.50;99.90;;;;;;5145610;27;20007;-73
2021/12/26 13:13:50;;;;;;;;;;;9.40;99.90;;;;;;5141748;27;20002;-75
2021/12/26 13:16:16;;;;;;;;;;;9.50;99.90;;;;;;5149091;27;20363;-73
2021/12/26 13:18:42;;;;;;;;;;;9.50;99.90;;;;;;5154670;27;19950;-73
2021/12/26 13:21:09;;;;;;;;;;;9.50;99.90;;;;;;5154121;27;19911;-74
2021/12/26 13:23:36;;;;;;;;;;;9.60;99.90;;;;;;5154844;27;19911;-74
2021/12/26 13:26:02;;;;;;;;;;;9.70;99.90;;;;;;5154091;27;19907;-73
2021/12/26 13:28:29;;;;;;;;;;;9.70;99.90;;;;;;5154765;27;19907;-74
2021/12/26 13:30:56;;;;;;;;;;;9.80;99.90;;;;;;5153921;27;19950;-73
2021/12/26 13:33:31;;;;;;;;;;;9.90;99.90;;;;;;5154624;27;20045;-74
2021/12/26 13:35:57;;;;;;;;;;;9.80;99.90;;;;;;5153968;27;19919;-74
2021/12/26 13:38:22;;;;;;;;;;;9.90;99.90;;;;;;5154476;27;20038;-74
2021/12/26 13:40:51;;;;;;;;;;;9.90;99.90;;;;;;5154295;27;20348;-76
2021/12/26 13:43:26;;;;;;;;;;;9.90;99.90;;;;;;5154697;27;20415;-74
2021/12/26 13:45:52;;;;;;;;;;;9.90;99.90;;;;;;5153360;27;19907;-76
2021/12/26 13:48:27;;;;;;;;;;;9.90;99.90;;;;;;5154340;27;19938;-74
2021/12/26 13:50:52;;;;;;;;;;;9.90;99.90;;;;;;5153494;27;19958;-74
2021/12/26 13:53:18;;;;;;;;;;;9.80;99.90;;;;;;5154136;27;20015;-74
2021/12/26 13:55:43;;;;;;;;;;;9.70;99.90;;;;;;5154264;27;19947;-74
2021/12/26 13:58:10;;;;;;;;;;;9.70;99.90;;;;;;5153517;27;20540;-73
2021/12/26 14:00:45;;;;;;;;;;;9.70;99.90;;;;;;5154371;27;19959;-74
2021/12/26 14:03:11;;;;;;;;;;;9.70;99.90;;;;;;5153416;27;19914;-74
2021/12/26 14:05:37;;;;;;;;;;;9.70;99.90;;;;;;5154138;27;19907;-74
2021/12/26 14:08:11;;;;;;;;;;;9.60;99.90;;;;;;5134270;27;19907;-74
2021/12/26 14:10:37;;;;;;;;;;;9.60;99.90;;;;;;5153919;27;20279;-74
2021/12/26 14:13:07;;;;;;;;;;;9.60;99.90;;;;;;5153293;27;19922;-74
2021/12/26 14:15:43;;;;;;;;;;;9.60;99.90;;;;;;5153870;27;19914;-74
2021/12/26 14:18:12;;;;;;;;;;;9.50;99.90;;;;;;5153064;27;20281;-74
2021/12/26 14:20:46;;;;;;;;;;;9.50;99.90;;;;;;5154072;27;19907;-74
2021/12/26 14:23:14;;;;;;;;;;;9.50;99.90;;;;;;5153269;27;19967;-74
2021/12/26 14:25:40;;;;;;;;;;;9.40;99.90;;;;;;5154345;27;19960;-74
2021/12/26 14:28:06;;;;;;;;;;;9.40;99.90;;;;;;5152874;27;19907;-74
2021/12/26 14:30:36;;;;;;;;;;;9.40;99.90;;;;;;5153632;27;19918;-75
2021/12/26 14:33:01;;;;;;;;;;;9.30;99.90;;;;;;5151564;27;19949;-77
2021/12/26 14:35:27;;;;;;;;;;;9.30;99.90;;;;;;5152500;27;19907;-74
2021/12/26 14:38:04;;;;;;;;;;;9.20;99.90;;;;;;5153575;27;20309;-77